Reardan, Washington
Current Conditions -  °F | °C
As of 12:58 AM on Sunday 26 Oct 2014 (Local Time) from KSKA Reporting Station
Overcast Overcast  
Wind Chill: 40°   Ceiling: 9000
Heat Index: 48°   Visibility: 10mi
Dew Point: 39°   Wind: 26mph
Humidity: 71%   Direction: 210°SSW
Pressure: 29.67"   Gusts: 38mph
Location:  47.67°N, 117.88°W
Report Text: KSKA 260758Z AUTO 21023G33KT 10SM SCT055 BKN090 OVC120 09/04 A2967 RMK AO2 PK WND 21038/44 CIG 055 RWY05 SLP050 T00890038 21034
Loading
Personal Weather Stations






























Interactive Weather Map
Tropical Storm Tracking
New forecast layout! Learn more

10-Day Weather Forecast

Advertisements
Track Severe Weather on mobile